Time;durP1;ratioP1;P1;durP2;ratioP2;P2;SDS_P1;SDS_P2;PMS_P1;PMS_P2;Temp;Humidity;BMP_temperature;BMP_pressure;BME280_temperature;BME280_humidity;BME280_pressure;Samples;Min_cycle;Max_cycle;Signal;HPM_P1;HPM_P2
2023/04/29 00:01:07;;;;;;;20.23;14.57;;;10.70;99.90;;;;;;5116847;28;20050;-80
2023/04/29 00:03:33;;;;;;;20.27;15.27;;;10.50;99.90;;;;;;5117465;28;20051;-79
2023/04/29 00:05:59;;;;;;;21.77;16.15;;;10.50;99.90;;;;;;5115880;28;20399;-78
2023/04/29 00:08:25;;;;;;;17.58;14.77;;;10.40;99.90;;;;;;5117428;28;20391;-79
2023/04/29 00:10:51;;;;;;;19.27;14.27;;;10.40;99.90;;;;;;5116453;28;20092;-79
2023/04/29 00:13:17;;;;;;;19.73;14.43;;;10.40;99.90;;;;;;5117207;28;20044;-78
2023/04/29 00:15:43;;;;;;;16.55;13.75;;;10.40;99.90;;;;;;5115972;28;20150;-82
2023/04/29 00:18:09;;;;;;;18.17;13.20;;;11.00;99.90;;;;;;5115991;28;20040;-83
2023/04/29 00:20:35;;;;;;;18.00;13.77;;;11.00;99.90;;;;;;5116666;28;20039;-83
2023/04/29 00:23:00;;;;;;;21.20;13.70;;;10.30;99.90;;;;;;5116258;28;20119;-82
2023/04/29 00:25:26;;;;;;;18.90;13.85;;;10.10;99.90;;;;;;5117030;28;20548;-82
2023/04/29 00:27:52;;;;;;;19.60;14.20;;;10.20;99.90;;;;;;5117036;28;20047;-81
2023/04/29 00:30:17;;;;;;;14.32;11.88;;;10.30;99.90;;;;;;5115703;28;20054;-81
2023/04/29 00:32:43;;;;;;;15.57;12.15;;;10.20;99.90;;;;;;5116938;28;20079;-81
2023/04/29 00:35:10;;;;;;;18.08;13.80;;;10.20;99.90;;;;;;5115933;28;20036;-81
2023/04/29 00:37:35;;;;;;;15.70;12.23;;;10.40;99.90;;;;;;5116327;28;20035;-78
2023/04/29 00:40:01;;;;;;;23.60;14.68;;;10.20;99.90;;;;;;5115582;28;20043;-78
2023/04/29 00:42:28;;;;;;;21.48;14.05;;;10.10;99.90;;;;;;5117581;28;20048;-79
2023/04/29 00:44:53;;;;;;;18.13;14.02;;;10.20;99.90;;;;;;5117872;28;20047;-80
2023/04/29 00:47:19;;;;;;;20.38;14.80;;;10.20;99.90;;;;;;5133994;28;20051;-79
2023/04/29 00:49:45;;;;;;;18.05;13.85;;;10.20;99.90;;;;;;5115997;28;20039;-79
2023/04/29 00:52:12;;;;;;;16.88;12.43;;;10.20;99.90;;;;;;5116286;28;20122;-80
2023/04/29 00:54:39;;;;;;;19.27;13.40;;;10.20;99.90;;;;;;5116465;28;20056;-80
2023/04/29 00:57:05;;;;;;;21.45;15.13;;;10.10;99.90;;;;;;5116428;28;20130;-80
2023/04/29 00:59:31;;;;;;;18.70;15.15;;;10.70;99.90;;;;;;5116028;28;20039;-81
2023/04/29 01:02:02;;;;;;;18.58;14.43;;;10.10;99.90;;;;;;5116104;28;20513;-79
2023/04/29 01:04:31;;;;;;;19.88;14.82;;;10.40;99.90;;;;;;5116668;28;20043;-82
2023/04/29 01:07:13;;;;;;;22.55;15.48;;;10.10;99.90;;;;;;5115612;28;20050;-80
2023/04/29 01:10:02;;;;;;;21.50;15.73;;;10.10;99.90;;;;;;5116313;28;20126;-80
2023/04/29 01:13:12;;;;;;;20.58;16.15;;;10.10;99.90;;;;;;5116353;28;20458;-79
2023/04/29 01:15:58;;;;;;;25.63;16.60;;;10.10;99.90;;;;;;5084332;28;20048;-82
2023/04/29 01:18:32;;;;;;;21.83;16.60;;;10.00;99.90;;;;;;5115682;28;20052;-80
2023/04/29 01:20:58;;;;;;;19.50;13.85;;;10.00;99.90;;;;;;5116110;28;20040;-82
2023/04/29 01:23:28;;;;;;;24.63;16.60;;;10.00;99.90;;;;;;5116056;28;20062;-82
2023/04/29 01:25:55;;;;;;;28.48;19.13;;;10.00;99.90;;;;;;5115734;28;20102;-81
2023/04/29 01:28:31;;;;;;;24.25;14.80;;;9.90;99.90;;;;;;5114906;28;20544;-81
2023/04/29 01:31:05;;;;;;;25.85;16.63;;;9.90;99.90;;;;;;5114835;28;20057;-79
2023/04/29 01:33:47;;;;;;;26.45;17.17;;;9.80;99.90;;;;;;5116129;28;20048;-79
2023/04/29 01:36:51;;;;;;;21.30;14.93;;;9.80;99.90;;;;;;5114603;28;20091;-79
2023/04/29 01:39:30;;;;;;;25.55;16.08;;;9.70;99.90;;;;;;5115523;28;20055;-78
2023/04/29 01:42:14;;;;;;;23.75;16.52;;;9.70;99.90;;;;;;5114188;28;20043;-82
2023/04/29 01:44:41;;;;;;;31.40;17.90;;;9.70;99.90;;;;;;5115710;28;20039;-82
2023/04/29 01:47:12;;;;;;;24.00;16.33;;;9.70;99.90;;;;;;5114532;28;20100;-78
2023/04/29 01:49:38;;;;;;;22.63;15.70;;;9.70;99.90;;;;;;5115378;28;20132;-82
2023/04/29 01:52:04;;;;;;;24.50;17.17;;;10.30;99.90;;;;;;5115036;27;20039;-79
2023/04/29 01:54:35;;;;;;;25.17;15.05;;;9.60;99.90;;;;;;5115098;28;20052;-82
2023/04/29 01:57:04;;;;;;;24.98;15.00;;;9.60;99.90;;;;;;5115128;28;20419;-79
2023/04/29 01:59:30;;;;;;;24.38;14.70;;;9.60;99.90;;;;;;5115209;28;20052;-79
2023/04/29 02:01:57;;;;;;;27.38;16.23;;;10.30;99.90;;;;;;5115093;28;20048;-81
2023/04/29 02:04:23;;;;;;;24.42;14.77;;;9.60;99.90;;;;;;5115037;28;20047;-79
2023/04/29 02:06:51;;;;;;;20.55;14.75;;;9.60;99.90;;;;;;5115010;28;20039;-79
2023/04/29 02:09:17;;;;;;;22.52;15.05;;;9.60;99.90;;;;;;5114969;28;20043;-80
2023/04/29 02:11:42;;;;;;;23.35;14.60;;;9.60;99.90;;;;;;5114698;28;20097;-80
2023/04/29 02:14:08;;;;;;;26.20;15.90;;;9.60;99.90;;;;;;5113668;28;20039;-80
2023/04/29 02:16:34;;;;;;;24.63;15.35;;;9.70;99.90;;;;;;5114505;28;20043;-80
2023/04/29 02:18:59;;;;;;;23.38;14.70;;;9.60;99.90;;;;;;5114873;28;20126;-80
2023/04/29 02:21:26;;;;;;;24.23;14.70;;;9.60;99.90;;;;;;5115061;28;20056;-79
2023/04/29 02:23:53;;;;;;;20.67;14.97;;;10.30;99.90;;;;;;5115090;28;20043;-80
2023/04/29 02:26:19;;;;;;;27.00;15.05;;;9.50;99.90;;;;;;5114946;28;20047;-80
2023/04/29 02:28:44;;;;;;;19.48;15.05;;;9.50;99.90;;;;;;5114532;28;20503;-79
2023/04/29 02:31:10;;;;;;;21.08;14.13;;;9.50;99.90;;;;;;5114743;28;20039;-80
2023/04/29 02:33:35;;;;;;;23.05;14.25;;;10.10;99.90;;;;;;5114373;28;20395;-80
2023/04/29 02:36:01;;;;;;;18.95;13.82;;;9.50;99.90;;;;;;5114532;28;20383;-79
2023/04/29 02:38:27;;;;;;;19.95;13.32;;;9.50;99.90;;;;;;5114404;28;20060;-81
2023/04/29 02:40:52;;;;;;;23.33;14.77;;;9.50;99.90;;;;;;5096330;28;20108;-80
2023/04/29 02:43:18;;;;;;;24.60;14.75;;;9.50;99.90;;;;;;5113829;28;20044;-80
2023/04/29 02:45:43;;;;;;;21.17;14.10;;;9.50;99.90;;;;;;5113329;28;20043;-81
2023/04/29 02:48:09;;;;;;;25.83;14.10;;;9.50;99.90;;;;;;5113055;28;20066;-80
2023/04/29 02:50:34;;;;;;;23.23;14.60;;;9.70;99.90;;;;;;5114835;28;20044;-80
2023/04/29 02:53:00;;;;;;;26.23;13.18;;;10.10;99.90;;;;;;5114222;28;20424;-80
2023/04/29 02:55:26;;;;;;;22.48;14.55;;;9.50;99.90;;;;;;5113859;28;20065;-80
2023/04/29 02:57:52;;;;;;;20.50;12.93;;;9.90;99.90;;;;;;5114158;28;20043;-80
2023/04/29 03:00:17;;;;;;;21.60;13.15;;;9.40;99.90;;;;;;5114203;28;20044;-80
2023/04/29 03:02:43;;;;;;;23.30;13.80;;;9.40;99.90;;;;;;5112476;28;20043;-80
2023/04/29 03:05:09;;;;;;;20.73;13.77;;;9.40;99.90;;;;;;5114256;28;20040;-80
2023/04/29 03:07:34;;;;;;;21.65;13.07;;;9.40;99.90;;;;;;5114539;28;20449;-80
2023/04/29 03:10:00;;;;;;;22.80;14.20;;;9.40;99.90;;;;;;5114165;28;20047;-80
2023/04/29 03:12:26;;;;;;;18.23;13.82;;;9.30;99.90;;;;;;5114147;28;20043;-80
2023/04/29 03:14:51;;;;;;;20.63;13.98;;;9.40;99.90;;;;;;5114041;28;20092;-80
2023/04/29 03:17:17;;;;;;;21.25;13.48;;;9.30;99.90;;;;;;5113644;28;20115;-81
2023/04/29 03:19:43;;;;;;;23.90;12.05;;;9.30;99.90;;;;;;5114028;28;20155;-80
2023/04/29 03:22:10;;;;;;;18.77;13.68;;;9.30;99.90;;;;;;5114398;28;20050;-80
2023/04/29 03:24:36;;;;;;;;;;;9.30;99.90;;;;;;5113278;28;20077;-80
2023/04/29 03:27:03;;;;;;;20.13;11.82;;;9.10;99.90;;;;;;5112425;28;20404;-80
2023/04/29 03:29:29;;;;;;;20.23;12.23;;;10.00;99.90;;;;;;5112935;28;20472;-81
2023/04/29 03:31:56;;;;;;;21.33;12.85;;;9.80;99.90;;;;;;5113963;28;20051;-80
2023/04/29 03:34:22;;;;;;;17.33;11.23;;;9.30;99.90;;;;;;5113829;28;20061;-81
2023/04/29 03:36:47;;;;;;;20.38;12.75;;;9.60;99.90;;;;;;5113988;28;20043;-81
2023/04/29 03:39:13;;;;;;;19.38;11.63;;;9.30;99.90;;;;;;5113904;28;20043;-80
2023/04/29 03:41:39;;;;;;;24.85;14.05;;;10.00;99.90;;;;;;5113971;28;20043;-80
2023/04/29 03:44:04;;;;;;;17.42;11.00;;;10.40;99.90;;;;;;5112907;28;20429;-81
2023/04/29 03:46:30;;;;;;;22.05;12.85;;;9.40;99.90;;;;;;5112970;28;20044;-80
2023/04/29 03:48:56;;;;;;;18.08;12.15;;;9.30;99.90;;;;;;5113791;28;20039;-80
2023/04/29 03:51:25;;;;;;;19.98;12.23;;;9.30;99.90;;;;;;5113681;28;20048;-81
2023/04/29 03:53:55;;;;;;;19.90;12.80;;;9.30;99.90;;;;;;5113139;28;20108;-81
2023/04/29 03:56:21;;;;;;;22.30;13.05;;;9.30;99.90;;;;;;5112286;28;20051;-81
2023/04/29 03:58:47;;;;;;;20.42;13.60;;;9.30;99.90;;;;;;5113780;28;20044;-80
2023/04/29 04:01:14;;;;;;;25.17;13.05;;;10.50;99.90;;;;;;5113501;28;20050;-79
2023/04/29 04:03:42;;;;;;;16.90;11.63;;;9.30;99.90;;;;;;5113872;28;20090;-80
2023/04/29 04:06:07;;;;;;;18.10;11.18;;;9.30;99.90;;;;;;5113606;28;20134;-80
2023/04/29 04:08:33;;;;;;;23.33;12.90;;;9.30;99.90;;;;;;5113544;28;20486;-81
2023/04/29 04:11:01;;;;;;;23.00;12.57;;;9.40;99.90;;;;;;5113471;28;20391;-79
2023/04/29 04:13:28;;;;;;;22.17;12.88;;;9.30;99.90;;;;;;5114034;28;20085;-78
2023/04/29 04:15:53;;;;;;;18.17;11.63;;;9.20;99.90;;;;;;5115349;28;20377;-80
2023/04/29 04:18:19;;;;;;;18.63;11.43;;;9.60;99.90;;;;;;5116010;28;20068;-81
2023/04/29 04:20:45;;;;;;;17.52;11.85;;;9.20;99.90;;;;;;5116835;28;20035;-81
2023/04/29 04:23:10;;;;;;;16.85;10.95;;;9.20;99.90;;;;;;5116097;28;20043;-80
2023/04/29 04:25:36;;;;;;;18.95;11.20;;;9.20;99.90;;;;;;5117107;28;20035;-81
2023/04/29 04:28:01;;;;;;;13.48;9.55;;;9.10;99.90;;;;;;5116437;28;20104;-80
2023/04/29 04:30:27;;;;;;;19.90;10.95;;;9.10;99.90;;;;;;5099057;28;20142;-80
2023/04/29 04:32:53;;;;;;;15.70;10.48;;;9.10;99.90;;;;;;5115203;28;20130;-80
2023/04/29 04:35:18;;;;;;;16.60;10.13;;;9.10;99.90;;;;;;5117405;28;20051;-81
2023/04/29 04:37:44;;;;;;;21.15;10.95;;;9.10;99.90;;;;;;5116759;28;20047;-81
2023/04/29 04:40:11;;;;;;;19.05;10.80;;;9.40;99.90;;;;;;5115633;28;20051;-80
2023/04/29 04:42:36;;;;;;;23.23;10.98;;;9.00;99.90;;;;;;5116500;27;20050;-81
2023/04/29 04:45:02;;;;;;;15.98;9.40;;;9.00;99.90;;;;;;5116686;28;20114;-81
2023/04/29 04:47:28;;;;;;;14.15;9.10;;;9.00;99.90;;;;;;5116588;28;20036;-81
2023/04/29 04:49:53;;;;;;;14.68;9.85;;;9.40;99.90;;;;;;5116668;28;20079;-81
2023/04/29 04:52:20;;;;;;;14.82;9.52;;;9.00;99.90;;;;;;5116666;28;20498;-81
2023/04/29 04:54:46;;;;;;;15.48;9.98;;;9.00;99.90;;;;;;5116918;28;20100;-80
2023/04/29 04:57:12;;;;;;;14.53;9.33;;;9.00;99.90;;;;;;5116336;28;20075;-81
2023/04/29 04:59:38;;;;;;;15.98;9.60;;;9.00;99.90;;;;;;5116564;28;20317;-81
2023/04/29 05:02:03;;;;;;;18.52;10.27;;;9.00;99.90;;;;;;5116363;28;20040;-81
2023/04/29 05:04:29;;;;;;;14.40;8.40;;;9.50;99.90;;;;;;5115550;28;20050;-80
2023/04/29 05:06:55;;;;;;;17.05;9.40;;;9.00;99.90;;;;;;5116805;28;20055;-81
2023/04/29 05:09:20;;;;;;;15.98;9.73;;;8.90;99.90;;;;;;5114607;28;20039;-80
2023/04/29 05:11:46;;;;;;;14.63;9.07;;;9.40;99.90;;;;;;5116286;27;20044;-80
2023/04/29 05:14:12;;;;;;;15.68;9.45;;;9.20;99.90;;;;;;5116118;28;20036;-81
2023/04/29 05:16:37;;;;;;;15.43;9.82;;;8.90;99.90;;;;;;5115762;28;20047;-81
2023/04/29 05:19:03;;;;;;;14.40;9.32;;;8.90;99.90;;;;;;5115999;28;20058;-79
2023/04/29 05:21:31;;;;;;;17.63;9.80;;;8.90;99.90;;;;;;5116443;28;20498;-79
2023/04/29 05:23:57;;;;;;;14.20;8.90;;;8.90;99.90;;;;;;5115537;28;20475;-80
2023/04/29 05:26:22;;;;;;;17.00;9.68;;;9.30;99.90;;;;;;5114916;28;20047;-81
2023/04/29 05:28:51;;;;;;;15.43;8.77;;;8.90;99.90;;;;;;5115753;28;20047;-79
2023/04/29 05:31:17;;;;;;;14.43;8.88;;;9.00;99.90;;;;;;5114773;28;20054;-80
2023/04/29 05:33:43;;;;;;;17.13;9.57;;;8.90;99.90;;;;;;5114530;28;20098;-81
2023/04/29 05:36:08;;;;;;;15.77;9.45;;;9.30;99.90;;;;;;5097315;28;20063;-82
2023/04/29 05:38:34;;;;;;;19.92;9.13;;;9.50;99.90;;;;;;5114959;28;20095;-82
2023/04/29 05:41:00;;;;;;;13.95;9.10;;;9.00;99.90;;;;;;5114367;28;20055;-82
2023/04/29 05:43:26;;;;;;;16.50;9.93;;;9.00;99.90;;;;;;5115361;28;20080;-84
2023/04/29 05:45:52;;;;;;;12.73;8.15;;;9.00;99.90;;;;;;5114202;28;20055;-82
2023/04/29 05:48:17;;;;;;;15.77;9.15;;;9.10;99.90;;;;;;5114453;28;20134;-82
2023/04/29 05:50:44;;;;;;;13.20;7.72;;;9.10;99.90;;;;;;5114437;28;20044;-84
2023/04/29 05:53:10;;;;;;;11.93;8.30;;;9.10;99.90;;;;;;5115744;28;20400;-83
2023/04/29 05:55:35;;;;;;;12.50;8.05;;;9.10;99.90;;;;;;5096919;28;20043;-82
2023/04/29 05:58:01;;;;;;;12.75;8.02;;;9.10;99.90;;;;;;5114572;28;20460;-77
2023/04/29 06:00:27;;;;;;;15.20;8.10;;;9.10;99.90;;;;;;5115234;28;20051;-81
2023/04/29 06:02:52;;;;;;;15.13;8.20;;;9.10;99.90;;;;;;5115255;28;20046;-82
2023/04/29 06:05:18;;;;;;;15.88;7.72;;;9.00;99.90;;;;;;5113935;28;20403;-81
2023/04/29 06:07:44;;;;;;;10.40;6.65;;;9.10;99.90;;;;;;5114173;28;20092;-79
2023/04/29 06:10:10;;;;;;;16.70;8.20;;;9.80;99.90;;;;;;5114980;28;20495;-79
2023/04/29 06:12:35;;;;;;;11.95;7.75;;;9.20;99.90;;;;;;5115066;28;20086;-83
2023/04/29 06:15:01;;;;;;;12.60;6.75;;;9.20;99.90;;;;;;5114795;28;20046;-83
2023/04/29 06:17:28;;;;;;;13.70;8.13;;;9.20;99.90;;;;;;5114911;28;20071;-84
2023/04/29 06:19:54;;;;;;;11.23;7.95;;;9.30;99.90;;;;;;5113905;28;20090;-81
2023/04/29 06:22:20;;;;;;;13.07;6.90;;;9.20;99.90;;;;;;5114873;28;20056;-86
2023/04/29 06:24:48;;;;;;;11.52;7.25;;;9.70;99.90;;;;;;5113598;28;20036;-85
2023/04/29 06:27:14;;;;;;;9.82;6.68;;;9.30;99.90;;;;;;5096987;28;20047;-83
2023/04/29 06:29:40;;;;;;;13.53;6.93;;;9.50;99.90;;;;;;5114796;28;20127;-88
2023/04/29 06:32:06;;;;;;;10.87;7.80;;;9.40;99.90;;;;;;5113611;28;20050;-87
2023/04/29 06:34:32;;;;;;;14.45;7.32;;;9.40;99.90;;;;;;5114677;28;20039;-90
2023/04/29 06:36:57;;;;;;;13.48;7.80;;;9.40;99.90;;;;;;5114793;28;20039;-89
2023/04/29 06:39:23;;;;;;;14.85;7.93;;;9.40;99.90;;;;;;5096986;28;20047;-82
2023/04/29 06:41:49;;;;;;;13.90;7.78;;;9.40;99.90;;;;;;5114502;28;20102;-86
2023/04/29 06:44:16;;;;;;;12.95;8.05;;;9.60;99.90;;;;;;5113391;28;20084;-82
2023/04/29 06:46:42;;;;;;;16.58;7.57;;;9.50;99.90;;;;;;5113485;28;20090;-80
2023/04/29 06:49:08;;;;;;;15.07;7.68;;;9.50;99.90;;;;;;5114026;28;20130;-87
2023/04/29 06:51:35;;;;;;;14.02;8.60;;;9.80;99.90;;;;;;5096899;28;20497;-85
2023/04/29 06:54:01;;;;;;;10.70;7.70;;;9.60;99.90;;;;;;5113221;28;20056;-81
2023/04/29 06:56:28;;;;;;;10.95;7.93;;;9.60;99.90;;;;;;5114346;28;20048;-80
2023/04/29 06:58:53;;;;;;;14.95;9.50;;;9.70;99.90;;;;;;5114593;28;20062;-84
2023/04/29 07:01:19;;;;;;;14.60;7.95;;;9.70;99.90;;;;;;5114943;28;20151;-81
2023/04/29 07:03:48;;;;;;;14.05;8.52;;;9.70;99.90;;;;;;5114650;28;20035;-78
2023/04/29 07:06:13;;;;;;;10.82;7.82;;;9.80;99.90;;;;;;5114150;28;20499;-79
2023/04/29 07:08:39;;;;;;;14.30;8.98;;;9.80;99.90;;;;;;5114296;28;20093;-78
2023/04/29 07:11:05;;;;;;;12.95;7.82;;;9.90;99.90;;;;;;5113106;28;20035;-80
2023/04/29 07:13:30;;;;;;;13.05;7.40;;;9.90;99.90;;;;;;5112279;28;20044;-79
2023/04/29 07:15:56;;;;;;;10.57;7.75;;;10.40;99.90;;;;;;5111709;28;20082;-81
2023/04/29 07:18:22;;;;;;;10.63;7.32;;;10.60;99.90;;;;;;5110927;28;20448;-82
2023/04/29 07:20:48;;;;;;;14.10;7.72;;;10.20;99.90;;;;;;5110862;28;20039;-82
2023/04/29 07:23:14;;;;;;;12.18;7.05;;;10.30;99.90;;;;;;5111654;28;20052;-78
2023/04/29 07:25:40;;;;;;;12.90;8.00;;;10.40;99.90;;;;;;5111917;28;20047;-79
2023/04/29 07:28:07;;;;;;;11.57;7.78;;;10.70;99.90;;;;;;5113696;28;20035;-79
2023/04/29 07:30:33;;;;;;;12.63;6.55;;;10.60;99.90;;;;;;5114025;28;20079;-80
2023/04/29 07:32:59;;;;;;;10.52;7.03;;;10.70;99.90;;;;;;5114251;28;20564;-80
2023/04/29 07:35:25;;;;;;;11.80;6.82;;;10.80;99.90;;;;;;5113262;28;20055;-81
2023/04/29 07:37:51;;;;;;;10.70;6.77;;;11.10;99.90;;;;;;5113957;28;20036;-81
2023/04/29 07:40:16;;;;;;;8.93;6.88;;;10.90;99.90;;;;;;5112969;28;20089;-81
2023/04/29 07:42:42;;;;;;;9.57;6.38;;;11.40;99.90;;;;;;5113850;28;20104;-83
2023/04/29 07:45:09;;;;;;;9.32;6.15;;;11.30;99.90;;;;;;5112612;28;20051;-81
2023/04/29 07:47:34;;;;;;;11.30;6.07;;;11.20;99.90;;;;;;5113848;28;20048;-78
2023/04/29 07:50:00;;;;;;;8.05;5.68;;;11.30;99.90;;;;;;5118298;28;20040;-80
2023/04/29 07:52:26;;;;;;;10.57;6.47;;;11.40;99.90;;;;;;5117582;28;20046;-79
2023/04/29 07:54:54;;;;;;;9.48;6.25;;;11.50;99.90;;;;;;5117079;28;20059;-81
2023/04/29 07:57:20;;;;;;;8.50;5.75;;;11.80;99.90;;;;;;5117706;28;20044;-82
2023/04/29 07:59:45;;;;;;;9.13;5.00;;;11.60;99.90;;;;;;5098955;28;20184;-78
2023/04/29 08:02:11;;;;;;;9.15;5.25;;;11.80;99.90;;;;;;5117636;28;20054;-79
2023/04/29 08:04:40;;;;;;;8.88;5.30;;;11.60;99.90;;;;;;5117294;28;20051;-78
2023/04/29 08:07:05;;;;;;;10.23;5.57;;;11.70;99.90;;;;;;5117158;28;20560;-79
2023/04/29 08:09:31;;;;;;;6.93;4.95;;;11.70;99.90;;;;;;5117723;28;20083;-76
2023/04/29 08:11:57;;;;;;;7.63;5.10;;;11.80;99.90;;;;;;5117290;28;20042;-80
2023/04/29 08:14:22;;;;;;;7.30;5.38;;;11.80;99.90;;;;;;5117567;28;20051;-77
2023/04/29 08:16:48;;;;;;;6.78;4.93;;;11.90;99.90;;;;;;5117541;28;20550;-79
2023/04/29 08:19:13;;;;;;;8.25;5.55;;;11.90;99.90;;;;;;5099377;28;20125;-77
2023/04/29 08:21:40;;;;;;;7.60;4.90;;;11.80;99.90;;;;;;5117599;28;20092;-80
2023/04/29 08:24:05;;;;;;;8.07;5.30;;;12.00;99.90;;;;;;5115848;28;20104;-78
2023/04/29 08:26:31;;;;;;;8.98;4.97;;;12.60;99.90;;;;;;5117085;28;20043;-82
2023/04/29 08:28:57;;;;;;;8.32;5.00;;;12.10;99.90;;;;;;5115615;28;20035;-80
2023/04/29 08:31:22;;;;;;;7.60;5.18;;;12.20;99.90;;;;;;5117075;28;20045;-81
2023/04/29 08:33:48;;;;;;;8.82;4.97;;;12.70;99.90;;;;;;5116181;28;20048;-76
2023/04/29 08:36:14;;;;;;;7.78;4.60;;;12.30;99.90;;;;;;5117445;28;20097;-78
2023/04/29 08:38:39;;;;;;;12.55;5.35;;;12.40;99.90;;;;;;5116952;28;20082;-80
2023/04/29 08:41:08;;;;;;;10.18;5.50;;;12.50;99.90;;;;;;5115872;28;20035;-78
2023/04/29 08:43:36;;;;;;;5.63;4.63;;;12.70;99.90;;;;;;5116699;28;20067;-81
2023/04/29 08:46:03;;;;;;;6.88;4.63;;;12.90;99.90;;;;;;5098958;28;20484;-79
2023/04/29 08:48:29;;;;;;;6.28;4.68;;;13.10;99.90;;;;;;5115483;28;20058;-80
2023/04/29 08:50:57;;;;;;;7.35;4.10;;;13.10;99.90;;;;;;5116374;28;20423;-84
2023/04/29 08:53:23;;;;;;;8.65;4.75;;;13.90;99.90;;;;;;5098018;28;20066;-81
2023/04/29 08:55:49;;;;;;;7.47;4.38;;;13.90;99.90;;;;;;5116619;27;20079;-84
2023/04/29 08:58:15;;;;;;;8.82;4.30;;;13.60;99.90;;;;;;5115689;28;20499;-84
2023/04/29 09:00:42;;;;;;;5.95;3.75;;;13.70;99.90;;;;;;5114770;28;20126;-84
2023/04/29 09:03:28;;;;;;;8.57;4.25;;;13.60;99.90;;;;;;5116465;28;20440;-82
2023/04/29 09:05:57;;;;;;;10.32;5.28;;;13.80;99.90;;;;;;5116407;28;20040;-82
2023/04/29 09:08:23;;;;;;;5.25;3.83;;;13.90;99.90;;;;;;5098525;28;20052;-84
2023/04/29 09:10:51;;;;;;;5.40;4.00;;;14.10;99.90;;;;;;5098156;28;20083;-83
2023/04/29 09:13:27;;;;;;;7.05;4.60;;;14.50;99.90;;;;;;5115837;28;20140;-82
2023/04/29 09:15:54;;;;;;;4.95;3.53;;;14.10;99.90;;;;;;5114764;28;20047;-82
2023/04/29 09:18:46;;;;;;;6.25;4.30;;;14.00;99.90;;;;;;5098214;28;20043;-84
2023/04/29 09:21:16;;;;;;;9.18;4.35;;;13.70;99.90;;;;;;5114781;28;20055;-83
2023/04/29 09:23:42;;;;;;;7.63;4.28;;;13.70;99.90;;;;;;5098755;28;20055;-83
2023/04/29 09:26:08;;;;;;;6.47;4.43;;;13.80;99.90;;;;;;5115014;28;20058;-82
2023/04/29 09:28:34;;;;;;;7.28;4.05;;;13.80;99.90;;;;;;5115844;28;20047;-83
2023/04/29 09:31:05;;;;;;;5.55;4.25;;;14.00;99.90;;;;;;5097317;28;20040;-83
2023/04/29 09:33:31;;;;;;;7.22;4.22;;;14.00;99.90;;;;;;5114787;28;20096;-83
2023/04/29 09:35:57;;;;;;;5.63;4.60;;;14.10;99.90;;;;;;5115665;28;20044;-84
2023/04/29 09:38:22;;;;;;;6.25;4.38;;;13.90;99.90;;;;;;5114975;28;20084;-84
2023/04/29 09:40:50;;;;;;;6.53;4.15;;;14.20;99.90;;;;;;5097742;28;20055;-83
2023/04/29 09:43:17;;;;;;;6.10;4.07;;;14.20;99.90;;;;;;5116032;28;20047;-82
2023/04/29 09:45:47;;;;;;;5.85;4.07;;;14.30;99.90;;;;;;5097840;28;20487;-83
2023/04/29 09:48:14;;;;;;;5.35;3.80;;;14.80;99.90;;;;;;5114540;28;20043;-83
2023/04/29 09:50:42;;;;;;;9.90;4.72;;;14.50;99.90;;;;;;5115388;28;20058;-82
2023/04/29 09:53:09;;;;;;;5.55;3.55;;;13.90;99.90;;;;;;5114945;28;20071;-82
2023/04/29 09:55:59;;;;;;;6.18;4.03;;;13.80;99.90;;;;;;5114166;28;20392;-82
2023/04/29 09:58:32;;;;;;;4.97;3.92;;;14.00;99.90;;;;;;5085129;28;20552;-81
2023/04/29 10:01:02;;;;;;;5.15;3.97;;;14.40;99.90;;;;;;5114200;28;20073;-82
2023/04/29 10:03:33;;;;;;;5.88;3.70;;;14.30;99.90;;;;;;5113930;28;20047;-82
2023/04/29 10:06:00;;;;;;;5.30;4.10;;;14.50;99.90;;;;;;5115186;28;20089;-83
2023/04/29 10:08:27;;;;;;;5.38;3.65;;;14.60;99.90;;;;;;5113466;28;20376;-84
2023/04/29 10:10:58;;;;;;;5.47;3.60;;;14.70;99.90;;;;;;5096265;28;20097;-84
2023/04/29 10:13:25;;;;;;;6.72;4.05;;;14.50;99.90;;;;;;5113876;28;20039;-82
2023/04/29 10:16:15;;;;;;;5.35;3.75;;;14.70;99.90;;;;;;5114957;28;20498;-85
2023/04/29 10:18:48;;;;;;;5.93;3.40;;;14.80;99.90;;;;;;5097075;28;20051;-84
2023/04/29 10:21:13;;;;;;;4.57;3.28;;;15.00;99.90;;;;;;5113804;28;20134;-83
2023/04/29 10:23:42;;;;;;;6.20;3.20;;;14.80;99.90;;;;;;5096958;28;20133;-83
2023/04/29 10:26:11;;;;;;;5.57;3.30;;;14.60;99.90;;;;;;5096675;28;20044;-81
2023/04/29 10:28:40;;;;;;;4.72;3.90;;;14.50;99.90;;;;;;5115050;28;20104;-84
2023/04/29 10:31:07;;;;;;;5.57;3.35;;;14.30;99.90;;;;;;5113385;28;20410;-85
2023/04/29 10:33:35;;;;;;;5.65;3.60;;;14.50;99.90;;;;;;5114689;28;20479;-85
2023/04/29 10:36:02;;;;;;;5.85;3.83;;;14.50;99.90;;;;;;5113426;28;20035;-80
2023/04/29 10:38:40;;;;;;;5.85;4.32;;;14.60;99.90;;;;;;5113540;28;20074;-80
2023/04/29 10:41:18;;;;;;;5.28;3.85;;;14.70;99.90;;;;;;5114720;28;20430;-79
2023/04/29 10:43:45;;;;;;;6.13;3.92;;;14.90;99.90;;;;;;5124012;28;20039;-79
2023/04/29 10:46:27;;;;;;;5.30;3.72;;;14.80;99.90;;;;;;5114356;28;20391;-82
2023/04/29 10:49:03;;;;;;;6.80;4.05;;;14.70;99.90;;;;;;5114394;28;20054;-81
2023/04/29 10:51:34;;;;;;;4.47;3.35;;;14.90;99.90;;;;;;5114515;28;20104;-80
2023/04/29 10:54:14;;;;;;;5.30;3.67;;;15.00;99.90;;;;;;5113005;28;20055;-80
2023/04/29 10:56:42;;;;;;;7.22;3.90;;;15.20;99.90;;;;;;5114055;28;20047;-82
2023/04/29 10:59:10;;;;;;;5.70;3.67;;;15.30;99.90;;;;;;5113677;28;20054;-77
2023/04/29 11:01:52;;;;;;;5.47;3.30;;;15.30;99.90;;;;;;5112999;28;20122;-78
2023/04/29 11:04:22;;;;;;;6.00;3.28;;;15.40;99.90;;;;;;5096372;28;20395;-79
2023/04/29 11:06:51;;;;;;;6.15;3.80;;;15.30;99.90;;;;;;5114154;28;20078;-78
2023/04/29 11:09:27;;;;;;;5.38;3.53;;;15.20;99.90;;;;;;5114422;28;20062;-82
2023/04/29 11:12:01;;;;;;;6.60;3.85;;;15.30;99.90;;;;;;5114705;28;20044;-84
2023/04/29 11:14:31;;;;;;;4.95;3.17;;;15.40;99.90;;;;;;5114746;28;20054;-81
2023/04/29 11:17:02;;;;;;;4.22;2.90;;;15.60;99.90;;;;;;5114695;28;20368;-82
2023/04/29 11:19:33;;;;;;;5.13;3.90;;;15.50;99.90;;;;;;5112986;28;20048;-82
2023/04/29 11:22:13;;;;;;;5.07;3.50;;;15.50;99.90;;;;;;5114540;28;20050;-81
2023/04/29 11:24:56;;;;;;;7.57;3.42;;;15.30;99.90;;;;;;5118384;28;20044;-80
2023/04/29 11:27:26;;;;;;;6.57;3.42;;;15.10;99.90;;;;;;5118316;28;20503;-81
2023/04/29 11:29:56;;;;;;;5.32;3.75;;;15.10;99.90;;;;;;5118617;28;20365;-81
2023/04/29 11:32:24;;;;;;;5.13;3.20;;;15.10;99.90;;;;;;5119516;28;20055;-82
2023/04/29 11:34:50;;;;;;;5.65;3.22;;;15.30;99.90;;;;;;5117969;28;20070;-80
2023/04/29 11:37:23;;;;;;;5.53;3.00;;;15.70;99.90;;;;;;5119225;28;20042;-85
2023/04/29 11:39:51;;;;;;;6.00;3.03;;;15.50;99.90;;;;;;5118317;28;20096;-78
2023/04/29 11:42:22;;;;;;;5.55;3.15;;;15.40;99.90;;;;;;5117673;28;20529;-79
2023/04/29 11:44:51;;;;;;;4.38;3.00;;;15.30;99.90;;;;;;5117918;28;20071;-77
2023/04/29 11:47:17;;;;;;;4.00;2.70;;;15.30;99.90;;;;;;5117933;28;20051;-79
2023/04/29 11:49:43;;;;;;;3.70;3.00;;;15.40;99.90;;;;;;5117889;28;20055;-81
2023/04/29 11:52:08;;;;;;;7.72;2.88;;;15.60;99.90;;;;;;5117827;28;20051;-83
2023/04/29 11:54:34;;;;;;;3.83;2.80;;;15.80;99.90;;;;;;5117825;28;20054;-84
2023/04/29 11:57:03;;;;;;;3.97;2.77;;;15.80;99.90;;;;;;5115815;28;20055;-85
2023/04/29 11:59:30;;;;;;;4.25;2.80;;;15.90;99.90;;;;;;5114372;28;20096;-81
2023/04/29 12:01:58;;;;;;;5.93;3.05;;;15.90;99.90;;;;;;5115324;27;20471;-83
2023/04/29 12:04:24;;;;;;;3.92;2.92;;;15.80;99.90;;;;;;5115765;28;20039;-81
2023/04/29 12:06:52;;;;;;;5.00;2.73;;;15.80;99.90;;;;;;5097500;28;20044;-84
2023/04/29 12:09:18;;;;;;;4.60;3.15;;;15.80;99.90;;;;;;5115527;28;20445;-84
2023/04/29 12:11:45;;;;;;;4.70;2.60;;;16.00;99.90;;;;;;5098576;28;20110;-84
2023/04/29 12:14:13;;;;;;;4.72;2.90;;;16.10;99.90;;;;;;5116237;28;20047;-82
2023/04/29 12:16:39;;;;;;;5.30;3.38;;;16.20;99.90;;;;;;5117339;28;20077;-82
2023/04/29 12:19:05;;;;;;;3.90;2.23;;;16.30;99.90;;;;;;5116021;28;20089;-83
2023/04/29 12:21:32;;;;;;;5.30;2.80;;;16.30;99.90;;;;;;5117169;28;20334;-80
2023/04/29 12:24:00;;;;;;;4.13;2.63;;;16.40;99.90;;;;;;5117186;28;20039;-78
2023/04/29 12:26:30;;;;;;;5.65;2.80;;;16.50;99.90;;;;;;5116582;28;20054;-80
2023/04/29 12:28:58;;;;;;;5.20;2.97;;;16.60;99.90;;;;;;5117162;28;20398;-81
2023/04/29 12:31:33;;;;;;;4.13;2.75;;;16.60;99.90;;;;;;5115891;28;20048;-82
2023/04/29 12:33:59;;;;;;;7.88;3.45;;;16.60;99.90;;;;;;5116036;28;20087;-82
2023/04/29 12:36:24;;;;;;;4.70;2.67;;;16.60;99.90;;;;;;5115769;28;20035;-83
2023/04/29 12:38:53;;;;;;;5.78;2.65;;;16.40;99.90;;;;;;5117074;28;20065;-83
